Airfield :
LOGIN :

Register | Disclaimer

   EN    FR    IT 

 










Legend :    VFR   Marginal VFR   IFR   Intensive IFR   Very Intensive IFR
Visi :
Ceiling :
>= 8 km
>= 3000ft
5 to 8 km
1000 to 3000 ft
1500m to 5 km
500 to 1000 ft
800 to 1500m
200 to 500 ft
< 800m
< 200 ft
Symbols :   Thunderstorms  Fog  Heavy snow  Heavy precipitations  Wind > 20 kt
SIGMETs :     Misc.  Thunderstorms  Icing  Turbulence  Mountain Waves  Volcanic Ashes







- Airport Elevation : 124 ft
- IATA code : NHT
- Download approach charts


EGWU - RAF Northolt

CURRENT METAR :
  • 220640Z 17004KT 6000 BR FEW060 14/13 Q1009 WHT BECMG 9999 NSW BLU

EXPIRED METARs :
  • 220604Z 13005KT 4000 3000NW MIFG BR FEW060 13/13 Q1010 YLO1 BECMG 9999 NSW
  • 220550Z 11001KT 4000 1800N MIFG BR FEW060 12/12 Q1010 BECMG 7000 HZ
  • 220450Z AUTO 15001KT 2500 // NCD 12/12 Q1010
  • 220350Z AUTO 11005KT 6000 // BKN048/// 13/13 Q1011

TAF AMD TAF EGWU
Valid from the 22 at 06:00 until the 23 at 00:00 UTC


220550Z 2206/2224 21005KT 1500 BR MIFG FEW045
BECMG 2206/2209 9999 NSW
PROB30
TEMPO 2213/2218 25015G25KT 7000 SHRA
No reported NOTAMs for that airfield.
1 SIGMET reported for the London FIR (EGTT) :
 
Embedded thunderstorms and hail
EGTT SIGMET 01 VALID 220330/220700 EGRR
EGTT LONDON FIR EMBD TSGR FCST WI N5437 W00243 - N5340 E00142 - N5142 E00150 - N5213 W00132 - N5437 W00243 TOP FL320 MOV N 15KT NC=



MET'MAP, your aeronautical weather chart ! - Copyright ORBIFLY December 2007 - Disclaimer

ORBIFLY MET'MAP TEAM :

Programming & Development : Alexandra Zaïnal
Concept & Development : Baudouin d'Aumeries
Co-Development & Prog : Marc-Olivier Méhu
Technical & hardware support : Manuel Goepfert

Contact : metmap@orbifly.com




SOURCES & CREDITS :

   NOAA